sensor_id;sensor_type;location;lat;lon;timestamp;temperature;humidity
59855;DHT22;45732;52.850;6.896;2023-12-04T00:02:14;2.00;99.90
59855;DHT22;45732;52.850;6.896;2023-12-04T00:04:40;1.90;99.90
59855;DHT22;45732;52.850;6.896;2023-12-04T00:07:06;1.90;99.90
59855;DHT22;45732;52.850;6.896;2023-12-04T00:09:31;1.90;99.90
59855;DHT22;45732;52.850;6.896;2023-12-04T00:11:57;1.90;99.90
59855;DHT22;45732;52.850;6.896;2023-12-04T00:14:23;1.90;99.90
59855;DHT22;45732;52.850;6.896;2023-12-04T00:16:48;2.00;99.90
59855;DHT22;45732;52.850;6.896;2023-12-04T00:19:14;2.00;99.90
59855;DHT22;45732;52.850;6.896;2023-12-04T00:21:40;2.00;99.90
59855;DHT22;45732;52.850;6.896;2023-12-04T00:24:05;2.00;99.90
59855;DHT22;45732;52.850;6.896;2023-12-04T00:26:31;2.00;99.90
59855;DHT22;45732;52.850;6.896;2023-12-04T00:28:57;2.00;99.90
59855;DHT22;45732;52.850;6.896;2023-12-04T00:31:22;2.00;99.90
59855;DHT22;45732;52.850;6.896;2023-12-04T00:33:48;2.00;99.90
59855;DHT22;45732;52.850;6.896;2023-12-04T00:36:14;2.00;99.90
59855;DHT22;45732;52.850;6.896;2023-12-04T00:38:40;2.00;99.90
59855;DHT22;45732;52.850;6.896;2023-12-04T00:41:05;2.00;99.90
59855;DHT22;45732;52.850;6.896;2023-12-04T00:43:31;2.00;99.90
59855;DHT22;45732;52.850;6.896;2023-12-04T00:45:57;2.00;99.90
59855;DHT22;45732;52.850;6.896;2023-12-04T00:48:22;2.00;99.90
59855;DHT22;45732;52.850;6.896;2023-12-04T00:50:48;2.00;99.90
59855;DHT22;45732;52.850;6.896;2023-12-04T00:53:14;1.90;99.90
59855;DHT22;45732;52.850;6.896;2023-12-04T00:55:39;2.00;99.90
59855;DHT22;45732;52.850;6.896;2023-12-04T00:58:05;1.90;99.90
59855;DHT22;45732;52.850;6.896;2023-12-04T01:00:31;2.00;99.90
59855;DHT22;45732;52.850;6.896;2023-12-04T01:02:56;2.00;99.90
59855;DHT22;45732;52.850;6.896;2023-12-04T01:05:22;1.90;99.90
59855;DHT22;45732;52.850;6.896;2023-12-04T01:07:48;1.90;99.90
59855;DHT22;45732;52.850;6.896;2023-12-04T01:10:13;1.90;99.90
59855;DHT22;45732;52.850;6.896;2023-12-04T01:12:39;2.00;99.90
59855;DHT22;45732;52.850;6.896;2023-12-04T01:15:05;2.00;99.90
59855;DHT22;45732;52.850;6.896;2023-12-04T01:17:31;2.00;99.90
59855;DHT22;45732;52.850;6.896;2023-12-04T01:19:56;1.90;99.90
59855;DHT22;45732;52.850;6.896;2023-12-04T01:22:23;1.90;99.90
59855;DHT22;45732;52.850;6.896;2023-12-04T01:24:49;2.00;99.90
59855;DHT22;45732;52.850;6.896;2023-12-04T01:27:14;2.00;99.90
59855;DHT22;45732;52.850;6.896;2023-12-04T01:29:40;2.00;99.90
59855;DHT22;45732;52.850;6.896;2023-12-04T01:32:06;2.00;99.90
59855;DHT22;45732;52.850;6.896;2023-12-04T01:34:31;2.00;99.90
59855;DHT22;45732;52.850;6.896;2023-12-04T01:36:57;2.00;99.90
59855;DHT22;45732;52.850;6.896;2023-12-04T01:39:23;1.90;99.90
59855;DHT22;45732;52.850;6.896;2023-12-04T01:41:49;2.00;99.90
59855;DHT22;45732;52.850;6.896;2023-12-04T01:44:14;2.00;99.90
59855;DHT22;45732;52.850;6.896;2023-12-04T01:46:41;1.90;99.90
59855;DHT22;45732;52.850;6.896;2023-12-04T01:49:07;1.90;99.90
59855;DHT22;45732;52.850;6.896;2023-12-04T01:51:33;1.90;99.90
59855;DHT22;45732;52.850;6.896;2023-12-04T01:54:03;2.00;99.90
59855;DHT22;45732;52.850;6.896;2023-12-04T01:56:30;2.00;99.90
59855;DHT22;45732;52.850;6.896;2023-12-04T01:58:57;2.00;99.90
59855;DHT22;45732;52.850;6.896;2023-12-04T02:01:23;2.10;99.90
59855;DHT22;45732;52.850;6.896;2023-12-04T02:03:50;2.00;99.90
59855;DHT22;45732;52.850;6.896;2023-12-04T02:06:16;2.10;99.90
59855;DHT22;45732;52.850;6.896;2023-12-04T02:08:42;2.00;99.90
59855;DHT22;45732;52.850;6.896;2023-12-04T02:11:08;2.10;99.90
59855;DHT22;45732;52.850;6.896;2023-12-04T02:13:35;2.10;99.90
59855;DHT22;45732;52.850;6.896;2023-12-04T02:16:03;2.10;99.90
59855;DHT22;45732;52.850;6.896;2023-12-04T02:18:34;2.00;99.90
59855;DHT22;45732;52.850;6.896;2023-12-04T02:21:03;2.00;99.90
59855;DHT22;45732;52.850;6.896;2023-12-04T02:23:28;2.00;99.90
59855;DHT22;45732;52.850;6.896;2023-12-04T02:26:09;2.00;99.90
59855;DHT22;45732;52.850;6.896;2023-12-04T02:28:36;2.10;99.90
59855;DHT22;45732;52.850;6.896;2023-12-04T02:31:04;2.10;99.90
59855;DHT22;45732;52.850;6.896;2023-12-04T02:33:31;2.10;99.90
59855;DHT22;45732;52.850;6.896;2023-12-04T02:35:59;2.10;99.90
59855;DHT22;45732;52.850;6.896;2023-12-04T02:38:27;2.10;99.90
59855;DHT22;45732;52.850;6.896;2023-12-04T02:40:52;2.20;99.90
59855;DHT22;45732;52.850;6.896;2023-12-04T02:43:18;2.10;99.90
59855;DHT22;45732;52.850;6.896;2023-12-04T02:45:44;2.20;99.90
59855;DHT22;45732;52.850;6.896;2023-12-04T02:48:10;2.20;99.90
59855;DHT22;45732;52.850;6.896;2023-12-04T02:50:35;2.20;99.90
59855;DHT22;45732;52.850;6.896;2023-12-04T02:53:01;2.20;99.90
59855;DHT22;45732;52.850;6.896;2023-12-04T02:55:27;2.10;99.90
59855;DHT22;45732;52.850;6.896;2023-12-04T02:57:53;2.10;99.90
59855;DHT22;45732;52.850;6.896;2023-12-04T03:00:19;2.10;99.90
59855;DHT22;45732;52.850;6.896;2023-12-04T03:02:45;2.10;99.90
59855;DHT22;45732;52.850;6.896;2023-12-04T03:05:10;2.20;99.90
59855;DHT22;45732;52.850;6.896;2023-12-04T03:07:36;2.20;99.90
59855;DHT22;45732;52.850;6.896;2023-12-04T03:10:02;2.20;99.90
59855;DHT22;45732;52.850;6.896;2023-12-04T03:12:27;2.20;99.90
59855;DHT22;45732;52.850;6.896;2023-12-04T03:14:53;2.20;99.90
59855;DHT22;45732;52.850;6.896;2023-12-04T03:17:19;2.20;99.90
59855;DHT22;45732;52.850;6.896;2023-12-04T03:19:45;2.20;99.90
59855;DHT22;45732;52.850;6.896;2023-12-04T03:22:12;2.20;99.90
59855;DHT22;45732;52.850;6.896;2023-12-04T03:24:37;2.20;99.90
59855;DHT22;45732;52.850;6.896;2023-12-04T03:27:03;2.20;99.90
59855;DHT22;45732;52.850;6.896;2023-12-04T03:29:29;2.20;99.90
59855;DHT22;45732;52.850;6.896;2023-12-04T03:31:55;2.20;99.90
59855;DHT22;45732;52.850;6.896;2023-12-04T03:34:20;2.10;99.90
59855;DHT22;45732;52.850;6.896;2023-12-04T03:36:46;2.20;99.90
59855;DHT22;45732;52.850;6.896;2023-12-04T03:39:11;2.10;99.90
59855;DHT22;45732;52.850;6.896;2023-12-04T03:41:37;2.10;99.90
59855;DHT22;45732;52.850;6.896;2023-12-04T03:44:03;2.20;99.90
59855;DHT22;45732;52.850;6.896;2023-12-04T03:46:29;2.10;99.90
59855;DHT22;45732;52.850;6.896;2023-12-04T03:48:55;2.10;99.90
59855;DHT22;45732;52.850;6.896;2023-12-04T03:51:21;2.10;99.90
59855;DHT22;45732;52.850;6.896;2023-12-04T03:53:46;2.20;99.90
59855;DHT22;45732;52.850;6.896;2023-12-04T03:56:12;2.20;99.90
59855;DHT22;45732;52.850;6.896;2023-12-04T03:58:38;2.20;99.90
59855;DHT22;45732;52.850;6.896;2023-12-04T04:01:04;2.20;99.90
59855;DHT22;45732;52.850;6.896;2023-12-04T04:03:30;2.10;99.90
59855;DHT22;45732;52.850;6.896;2023-12-04T04:05:55;2.10;99.90
59855;DHT22;45732;52.850;6.896;2023-12-04T04:08:21;2.10;99.90
59855;DHT22;45732;52.850;6.896;2023-12-04T04:10:47;2.10;99.90
59855;DHT22;45732;52.850;6.896;2023-12-04T04:13:12;2.10;99.90
59855;DHT22;45732;52.850;6.896;2023-12-04T04:15:38;2.10;99.90
59855;DHT22;45732;52.850;6.896;2023-12-04T04:18:04;2.10;99.90
59855;DHT22;45732;52.850;6.896;2023-12-04T04:20:29;2.10;99.90
59855;DHT22;45732;52.850;6.896;2023-12-04T04:22:55;2.10;99.90
59855;DHT22;45732;52.850;6.896;2023-12-04T04:25:21;2.10;99.90
59855;DHT22;45732;52.850;6.896;2023-12-04T04:27:48;2.10;99.90
59855;DHT22;45732;52.850;6.896;2023-12-04T04:30:14;2.10;99.90
59855;DHT22;45732;52.850;6.896;2023-12-04T04:32:40;2.10;99.90
59855;DHT22;45732;52.850;6.896;2023-12-04T04:35:07;2.10;99.90
59855;DHT22;45732;52.850;6.896;2023-12-04T04:37:32;2.20;99.90
59855;DHT22;45732;52.850;6.896;2023-12-04T04:39:58;2.20;99.90
59855;DHT22;45732;52.850;6.896;2023-12-04T04:42:24;2.20;99.90
59855;DHT22;45732;52.850;6.896;2023-12-04T04:44:49;2.10;99.90
59855;DHT22;45732;52.850;6.896;2023-12-04T04:47:15;2.20;99.90
59855;DHT22;45732;52.850;6.896;2023-12-04T04:49:41;2.20;99.90
59855;DHT22;45732;52.850;6.896;2023-12-04T04:52:07;2.20;99.90
59855;DHT22;45732;52.850;6.896;2023-12-04T04:54:33;2.20;99.90
59855;DHT22;45732;52.850;6.896;2023-12-04T04:56:59;2.30;99.90
59855;DHT22;45732;52.850;6.896;2023-12-04T04:59:24;2.20;99.90
59855;DHT22;45732;52.850;6.896;2023-12-04T05:01:50;2.20;99.90
59855;DHT22;45732;52.850;6.896;2023-12-04T05:04:16;2.20;99.90
59855;DHT22;45732;52.850;6.896;2023-12-04T05:06:42;2.30;99.90
59855;DHT22;45732;52.850;6.896;2023-12-04T05:09:07;2.20;99.90
59855;DHT22;45732;52.850;6.896;2023-12-04T05:11:33;2.20;99.90
59855;DHT22;45732;52.850;6.896;2023-12-04T05:13:58;2.10;99.90
59855;DHT22;45732;52.850;6.896;2023-12-04T05:16:24;2.30;99.90
59855;DHT22;45732;52.850;6.896;2023-12-04T05:18:50;2.30;99.90
59855;DHT22;45732;52.850;6.896;2023-12-04T05:21:15;2.20;99.90
59855;DHT22;45732;52.850;6.896;2023-12-04T05:23:41;2.30;99.90
59855;DHT22;45732;52.850;6.896;2023-12-04T05:26:07;2.30;99.90
59855;DHT22;45732;52.850;6.896;2023-12-04T05:28:34;2.30;99.90
59855;DHT22;45732;52.850;6.896;2023-12-04T05:31:00;2.30;99.90
59855;DHT22;45732;52.850;6.896;2023-12-04T05:33:25;2.30;99.90
59855;DHT22;45732;52.850;6.896;2023-12-04T05:35:52;2.30;99.90
59855;DHT22;45732;52.850;6.896;2023-12-04T05:38:18;2.30;99.90
59855;DHT22;45732;52.850;6.896;2023-12-04T05:40:44;2.30;99.90
59855;DHT22;45732;52.850;6.896;2023-12-04T05:43:10;2.30;99.90
59855;DHT22;45732;52.850;6.896;2023-12-04T05:45:35;2.30;99.90
59855;DHT22;45732;52.850;6.896;2023-12-04T05:48:01;2.20;99.90
59855;DHT22;45732;52.850;6.896;2023-12-04T05:50:27;2.30;99.90
59855;DHT22;45732;52.850;6.896;2023-12-04T05:52:53;2.30;99.90
59855;DHT22;45732;52.850;6.896;2023-12-04T05:55:18;2.30;99.90
59855;DHT22;45732;52.850;6.896;2023-12-04T05:57:45;2.30;99.90
59855;DHT22;45732;52.850;6.896;2023-12-04T06:00:11;2.40;99.90
59855;DHT22;45732;52.850;6.896;2023-12-04T06:02:44;2.40;99.90
59855;DHT22;45732;52.850;6.896;2023-12-04T06:05:10;2.40;99.90
59855;DHT22;45732;52.850;6.896;2023-12-04T06:07:38;2.50;99.90
59855;DHT22;45732;52.850;6.896;2023-12-04T06:10:04;2.40;99.90
59855;DHT22;45732;52.850;6.896;2023-12-04T06:12:31;2.50;99.90
59855;DHT22;45732;52.850;6.896;2023-12-04T06:14:57;2.40;99.90
59855;DHT22;45732;52.850;6.896;2023-12-04T06:17:24;2.40;99.90
59855;DHT22;45732;52.850;6.896;2023-12-04T06:19:49;2.40;99.90
59855;DHT22;45732;52.850;6.896;2023-12-04T06:22:15;2.30;99.90
59855;DHT22;45732;52.850;6.896;2023-12-04T06:24:44;2.40;99.90
59855;DHT22;45732;52.850;6.896;2023-12-04T06:27:13;2.40;99.90
59855;DHT22;45732;52.850;6.896;2023-12-04T06:29:40;2.40;99.90
59855;DHT22;45732;52.850;6.896;2023-12-04T06:32:06;2.40;99.90
59855;DHT22;45732;52.850;6.896;2023-12-04T06:34:33;2.40;99.90
59855;DHT22;45732;52.850;6.896;2023-12-04T06:36:59;2.40;99.90
59855;DHT22;45732;52.850;6.896;2023-12-04T06:39:32;2.40;99.90
59855;DHT22;45732;52.850;6.896;2023-12-04T06:41:58;2.40;99.90
59855;DHT22;45732;52.850;6.896;2023-12-04T06:44:24;2.50;99.90
59855;DHT22;45732;52.850;6.896;2023-12-04T06:46:52;2.40;99.90
59855;DHT22;45732;52.850;6.896;2023-12-04T06:49:18;2.30;99.90
59855;DHT22;45732;52.850;6.896;2023-12-04T06:51:44;2.30;99.90
59855;DHT22;45732;52.850;6.896;2023-12-04T06:54:09;2.30;99.90
59855;DHT22;45732;52.850;6.896;2023-12-04T06:56:37;2.30;99.90
59855;DHT22;45732;52.850;6.896;2023-12-04T06:59:03;2.30;99.90
59855;DHT22;45732;52.850;6.896;2023-12-04T07:01:29;2.20;99.90
59855;DHT22;45732;52.850;6.896;2023-12-04T07:03:55;2.20;99.90
59855;DHT22;45732;52.850;6.896;2023-12-04T07:06:21;2.20;99.90
59855;DHT22;45732;52.850;6.896;2023-12-04T07:08:46;2.30;99.90
59855;DHT22;45732;52.850;6.896;2023-12-04T07:11:12;2.20;99.90
59855;DHT22;45732;52.850;6.896;2023-12-04T07:13:41;2.30;99.90
59855;DHT22;45732;52.850;6.896;2023-12-04T07:16:07;2.30;99.90
59855;DHT22;45732;52.850;6.896;2023-12-04T07:18:33;2.30;99.90
59855;DHT22;45732;52.850;6.896;2023-12-04T07:21:00;2.30;99.90
59855;DHT22;45732;52.850;6.896;2023-12-04T07:23:26;2.30;99.90
59855;DHT22;45732;52.850;6.896;2023-12-04T07:25:52;2.30;99.90
59855;DHT22;45732;52.850;6.896;2023-12-04T07:28:18;2.20;99.90
59855;DHT22;45732;52.850;6.896;2023-12-04T07:30:44;2.20;99.90
59855;DHT22;45732;52.850;6.896;2023-12-04T07:33:09;2.20;99.90
59855;DHT22;45732;52.850;6.896;2023-12-04T07:35:35;2.20;99.90
59855;DHT22;45732;52.850;6.896;2023-12-04T07:38:01;2.20;99.90
59855;DHT22;45732;52.850;6.896;2023-12-04T07:40:26;2.20;99.90
59855;DHT22;45732;52.850;6.896;2023-12-04T07:42:53;2.20;99.90
59855;DHT22;45732;52.850;6.896;2023-12-04T07:45:19;2.20;99.90
59855;DHT22;45732;52.850;6.896;2023-12-04T07:47:45;2.20;99.90
59855;DHT22;45732;52.850;6.896;2023-12-04T07:50:11;2.20;99.90
59855;DHT22;45732;52.850;6.896;2023-12-04T07:52:37;2.20;99.90
59855;DHT22;45732;52.850;6.896;2023-12-04T07:55:03;2.20;99.90
59855;DHT22;45732;52.850;6.896;2023-12-04T07:57:29;2.20;99.90
59855;DHT22;45732;52.850;6.896;2023-12-04T07:59:55;2.20;99.90
59855;DHT22;45732;52.850;6.896;2023-12-04T08:02:20;2.20;99.90
59855;DHT22;45732;52.850;6.896;2023-12-04T08:04:46;2.30;99.90
59855;DHT22;45732;52.850;6.896;2023-12-04T08:07:12;2.20;99.90
59855;DHT22;45732;52.850;6.896;2023-12-04T08:09:39;2.20;99.90
59855;DHT22;45732;52.850;6.896;2023-12-04T08:12:05;2.20;99.90
59855;DHT22;45732;52.850;6.896;2023-12-04T08:14:30;2.20;99.90
59855;DHT22;45732;52.850;6.896;2023-12-04T08:16:56;2.20;99.90
59855;DHT22;45732;52.850;6.896;2023-12-04T08:19:22;2.20;99.90
59855;DHT22;45732;52.850;6.896;2023-12-04T08:21:49;2.20;99.90
59855;DHT22;45732;52.850;6.896;2023-12-04T08:24:15;2.30;99.90
59855;DHT22;45732;52.850;6.896;2023-12-04T08:26:44;2.30;99.90
59855;DHT22;45732;52.850;6.896;2023-12-04T08:29:11;2.30;99.90
59855;DHT22;45732;52.850;6.896;2023-12-04T08:31:37;2.30;99.90
59855;DHT22;45732;52.850;6.896;2023-12-04T08:34:02;2.30;99.90
59855;DHT22;45732;52.850;6.896;2023-12-04T08:36:28;2.30;99.90
59855;DHT22;45732;52.850;6.896;2023-12-04T08:38:54;2.30;99.90
59855;DHT22;45732;52.850;6.896;2023-12-04T08:41:20;2.20;99.90
59855;DHT22;45732;52.850;6.896;2023-12-04T08:43:45;2.30;99.90
59855;DHT22;45732;52.850;6.896;2023-12-04T08:46:15;2.30;99.90
59855;DHT22;45732;52.850;6.896;2023-12-04T08:48:41;2.30;99.90
59855;DHT22;45732;52.850;6.896;2023-12-04T08:51:07;2.30;99.90
59855;DHT22;45732;52.850;6.896;2023-12-04T08:53:34;2.30;99.90
59855;DHT22;45732;52.850;6.896;2023-12-04T08:56:00;2.40;99.90
59855;DHT22;45732;52.850;6.896;2023-12-04T08:58:26;2.30;99.90
59855;DHT22;45732;52.850;6.896;2023-12-04T09:00:51;2.40;99.90
59855;DHT22;45732;52.850;6.896;2023-12-04T09:03:17;2.40;99.90
59855;DHT22;45732;52.850;6.896;2023-12-04T09:05:44;2.40;99.90
59855;DHT22;45732;52.850;6.896;2023-12-04T09:08:10;2.40;99.90
59855;DHT22;45732;52.850;6.896;2023-12-04T09:10:36;2.40;99.90
59855;DHT22;45732;52.850;6.896;2023-12-04T09:13:01;2.40;99.90
59855;DHT22;45732;52.850;6.896;2023-12-04T09:15:27;2.40;99.90
59855;DHT22;45732;52.850;6.896;2023-12-04T09:17:53;2.50;99.90
59855;DHT22;45732;52.850;6.896;2023-12-04T09:20:19;2.50;99.90
59855;DHT22;45732;52.850;6.896;2023-12-04T09:22:45;2.50;99.90
59855;DHT22;45732;52.850;6.896;2023-12-04T09:25:10;2.50;99.90
59855;DHT22;45732;52.850;6.896;2023-12-04T09:27:36;2.50;99.90
59855;DHT22;45732;52.850;6.896;2023-12-04T09:30:02;2.60;99.90
59855;DHT22;45732;52.850;6.896;2023-12-04T09:32:28;2.50;99.90
59855;DHT22;45732;52.850;6.896;2023-12-04T09:34:53;2.60;99.90
59855;DHT22;45732;52.850;6.896;2023-12-04T09:37:19;2.60;99.90
59855;DHT22;45732;52.850;6.896;2023-12-04T09:39:45;2.70;99.90
59855;DHT22;45732;52.850;6.896;2023-12-04T09:42:10;2.70;99.90
59855;DHT22;45732;52.850;6.896;2023-12-04T09:44:39;2.70;99.90
59855;DHT22;45732;52.850;6.896;2023-12-04T09:47:07;2.70;99.90
59855;DHT22;45732;52.850;6.896;2023-12-04T09:49:33;2.80;99.90
59855;DHT22;45732;52.850;6.896;2023-12-04T09:52:01;2.80;99.90
59855;DHT22;45732;52.850;6.896;2023-12-04T09:54:29;2.80;99.90
59855;DHT22;45732;52.850;6.896;2023-12-04T09:56:55;2.90;99.90
59855;DHT22;45732;52.850;6.896;2023-12-04T09:59:24;2.90;99.90
59855;DHT22;45732;52.850;6.896;2023-12-04T10:01:51;2.90;99.90
59855;DHT22;45732;52.850;6.896;2023-12-04T10:04:17;3.00;99.90
59855;DHT22;45732;52.850;6.896;2023-12-04T10:06:43;3.00;99.90
59855;DHT22;45732;52.850;6.896;2023-12-04T10:09:10;3.00;99.90
59855;DHT22;45732;52.850;6.896;2023-12-04T10:11:41;3.10;99.90
59855;DHT22;45732;52.850;6.896;2023-12-04T10:14:18;3.10;99.90
59855;DHT22;45732;52.850;6.896;2023-12-04T10:16:44;3.10;99.90
59855;DHT22;45732;52.850;6.896;2023-12-04T10:19:24;3.10;99.90
59855;DHT22;45732;52.850;6.896;2023-12-04T10:21:52;3.10;99.90
59855;DHT22;45732;52.850;6.896;2023-12-04T10:24:38;3.20;99.90
59855;DHT22;45732;52.850;6.896;2023-12-04T10:27:10;3.20;99.90
59855;DHT22;45732;52.850;6.896;2023-12-04T10:29:48;3.20;99.90
59855;DHT22;45732;52.850;6.896;2023-12-04T10:32:18;3.20;99.90
59855;DHT22;45732;52.850;6.896;2023-12-04T10:34:47;3.30;99.90
59855;DHT22;45732;52.850;6.896;2023-12-04T10:37:13;3.20;99.90
59855;DHT22;45732;52.850;6.896;2023-12-04T10:42:29;3.30;99.90
59855;DHT22;45732;52.850;6.896;2023-12-04T10:44:59;3.30;99.90
59855;DHT22;45732;52.850;6.896;2023-12-04T10:47:26;3.30;99.90
59855;DHT22;45732;52.850;6.896;2023-12-04T10:49:52;3.30;99.90
59855;DHT22;45732;52.850;6.896;2023-12-04T10:52:18;3.30;99.90
59855;DHT22;45732;52.850;6.896;2023-12-04T10:54:46;3.30;99.90
59855;DHT22;45732;52.850;6.896;2023-12-04T10:57:13;3.40;99.90
59855;DHT22;45732;52.850;6.896;2023-12-04T10:59:42;3.40;99.90
59855;DHT22;45732;52.850;6.896;2023-12-04T11:02:17;3.40;99.90
59855;DHT22;45732;52.850;6.896;2023-12-04T11:04:49;3.40;99.90
59855;DHT22;45732;52.850;6.896;2023-12-04T11:07:17;3.40;99.90
59855;DHT22;45732;52.850;6.896;2023-12-04T11:09:43;3.40;99.90
59855;DHT22;45732;52.850;6.896;2023-12-04T11:12:11;3.40;99.90
59855;DHT22;45732;52.850;6.896;2023-12-04T11:14:45;3.30;99.90
59855;DHT22;45732;52.850;6.896;2023-12-04T11:17:14;3.30;99.90
59855;DHT22;45732;52.850;6.896;2023-12-04T11:19:57;3.40;99.90
59855;DHT22;45732;52.850;6.896;2023-12-04T11:22:25;3.40;99.90
59855;DHT22;45732;52.850;6.896;2023-12-04T11:24:51;3.30;99.90
59855;DHT22;45732;52.850;6.896;2023-12-04T11:27:17;3.30;99.90
59855;DHT22;45732;52.850;6.896;2023-12-04T11:29:47;3.30;99.90
59855;DHT22;45732;52.850;6.896;2023-12-04T11:32:16;3.30;99.90
59855;DHT22;45732;52.850;6.896;2023-12-04T11:34:54;3.30;99.90
59855;DHT22;45732;52.850;6.896;2023-12-04T11:37:21;3.30;99.90
59855;DHT22;45732;52.850;6.896;2023-12-04T11:39:50;3.30;99.90
59855;DHT22;45732;52.850;6.896;2023-12-04T11:42:23;3.40;99.90
59855;DHT22;45732;52.850;6.896;2023-12-04T11:44:50;3.40;99.90
59855;DHT22;45732;52.850;6.896;2023-12-04T11:47:21;3.40;99.90
59855;DHT22;45732;52.850;6.896;2023-12-04T11:49:46;3.40;99.90
59855;DHT22;45732;52.850;6.896;2023-12-04T11:52:12;3.40;99.90
59855;DHT22;45732;52.850;6.896;2023-12-04T11:57:26;3.50;99.90
59855;DHT22;45732;52.850;6.896;2023-12-04T12:00:08;3.50;99.90
59855;DHT22;45732;52.850;6.896;2023-12-04T12:02:35;3.50;99.90
59855;DHT22;45732;52.850;6.896;2023-12-04T12:05:00;3.50;99.90
59855;DHT22;45732;52.850;6.896;2023-12-04T12:07:27;3.50;99.90
59855;DHT22;45732;52.850;6.896;2023-12-04T12:09:53;3.60;99.90
59855;DHT22;45732;52.850;6.896;2023-12-04T12:12:20;3.60;99.90
59855;DHT22;45732;52.850;6.896;2023-12-04T12:14:45;3.60;99.90
59855;DHT22;45732;52.850;6.896;2023-12-04T12:17:11;3.60;99.90
59855;DHT22;45732;52.850;6.896;2023-12-04T12:19:38;3.60;99.90
59855;DHT22;45732;52.850;6.896;2023-12-04T12:22:04;3.60;99.90
59855;DHT22;45732;52.850;6.896;2023-12-04T12:24:30;3.70;99.90
59855;DHT22;45732;52.850;6.896;2023-12-04T12:26:55;3.60;99.90
59855;DHT22;45732;52.850;6.896;2023-12-04T12:29:21;3.70;99.90
59855;DHT22;45732;52.850;6.896;2023-12-04T12:31:47;3.70;99.90
59855;DHT22;45732;52.850;6.896;2023-12-04T12:34:13;3.70;99.90
59855;DHT22;45732;52.850;6.896;2023-12-04T12:36:40;3.80;99.90
59855;DHT22;45732;52.850;6.896;2023-12-04T12:39:06;3.80;99.90
59855;DHT22;45732;52.850;6.896;2023-12-04T12:41:34;3.80;99.90
59855;DHT22;45732;52.850;6.896;2023-12-04T12:44:00;3.80;99.90
59855;DHT22;45732;52.850;6.896;2023-12-04T12:46:27;3.80;99.90
59855;DHT22;45732;52.850;6.896;2023-12-04T12:48:53;3.80;99.90
59855;DHT22;45732;52.850;6.896;2023-12-04T12:51:19;3.80;99.90
59855;DHT22;45732;52.850;6.896;2023-12-04T12:53:45;3.70;99.90
59855;DHT22;45732;52.850;6.896;2023-12-04T12:56:11;3.70;99.90
59855;DHT22;45732;52.850;6.896;2023-12-04T12:58:37;3.70;99.90
59855;DHT22;45732;52.850;6.896;2023-12-04T13:01:02;3.70;99.90
59855;DHT22;45732;52.850;6.896;2023-12-04T13:03:30;3.70;99.90
59855;DHT22;45732;52.850;6.896;2023-12-04T13:05:57;3.70;99.90
59855;DHT22;45732;52.850;6.896;2023-12-04T13:08:22;3.70;99.90
59855;DHT22;45732;52.850;6.896;2023-12-04T13:10:48;3.70;99.90
59855;DHT22;45732;52.850;6.896;2023-12-04T13:13:15;3.70;99.90
59855;DHT22;45732;52.850;6.896;2023-12-04T13:15:42;3.60;99.90
59855;DHT22;45732;52.850;6.896;2023-12-04T13:18:08;3.70;99.90
59855;DHT22;45732;52.850;6.896;2023-12-04T13:20:34;3.60;99.90
59855;DHT22;45732;52.850;6.896;2023-12-04T13:23:01;3.60;99.90
59855;DHT22;45732;52.850;6.896;2023-12-04T13:25:27;3.60;99.90
59855;DHT22;45732;52.850;6.896;2023-12-04T13:27:53;3.50;99.90
59855;DHT22;45732;52.850;6.896;2023-12-04T13:30:19;3.50;99.90
59855;DHT22;45732;52.850;6.896;2023-12-04T13:32:45;3.50;99.90
59855;DHT22;45732;52.850;6.896;2023-12-04T13:35:11;3.50;99.90
59855;DHT22;45732;52.850;6.896;2023-12-04T13:37:37;3.50;99.90
59855;DHT22;45732;52.850;6.896;2023-12-04T13:40:05;3.50;99.90
59855;DHT22;45732;52.850;6.896;2023-12-04T13:42:38;3.50;99.90
59855;DHT22;45732;52.850;6.896;2023-12-04T13:45:22;3.40;99.90
59855;DHT22;45732;52.850;6.896;2023-12-04T13:47:49;3.50;99.90
59855;DHT22;45732;52.850;6.896;2023-12-04T13:50:15;3.50;99.90
59855;DHT22;45732;52.850;6.896;2023-12-04T13:52:41;3.50;99.90
59855;DHT22;45732;52.850;6.896;2023-12-04T13:55:09;3.50;99.90
59855;DHT22;45732;52.850;6.896;2023-12-04T13:57:46;3.50;99.90
59855;DHT22;45732;52.850;6.896;2023-12-04T14:00:25;3.50;99.90
59855;DHT22;45732;52.850;6.896;2023-12-04T14:02:50;3.50;99.90
59855;DHT22;45732;52.850;6.896;2023-12-04T14:05:25;3.50;99.90
59855;DHT22;45732;52.850;6.896;2023-12-04T14:07:51;3.50;99.90
59855;DHT22;45732;52.850;6.896;2023-12-04T14:10:17;3.50;99.90
59855;DHT22;45732;52.850;6.896;2023-12-04T14:12:42;3.50;99.90
59855;DHT22;45732;52.850;6.896;2023-12-04T14:15:08;3.50;99.90
59855;DHT22;45732;52.850;6.896;2023-12-04T14:17:34;3.50;99.90
59855;DHT22;45732;52.850;6.896;2023-12-04T14:20:00;3.50;99.90
59855;DHT22;45732;52.850;6.896;2023-12-04T14:22:28;3.50;99.90
59855;DHT22;45732;52.850;6.896;2023-12-04T14:24:53;3.50;99.90
59855;DHT22;45732;52.850;6.896;2023-12-04T14:27:19;3.50;99.90
59855;DHT22;45732;52.850;6.896;2023-12-04T14:29:45;3.40;99.90
59855;DHT22;45732;52.850;6.896;2023-12-04T14:32:10;3.50;99.90
59855;DHT22;45732;52.850;6.896;2023-12-04T14:34:38;3.50;99.90
59855;DHT22;45732;52.850;6.896;2023-12-04T14:37:04;3.50;99.90
59855;DHT22;45732;52.850;6.896;2023-12-04T14:39:29;3.50;99.90
59855;DHT22;45732;52.850;6.896;2023-12-04T14:41:55;3.50;99.90
59855;DHT22;45732;52.850;6.896;2023-12-04T14:44:21;3.50;99.90
59855;DHT22;45732;52.850;6.896;2023-12-04T14:46:46;3.50;99.90
59855;DHT22;45732;52.850;6.896;2023-12-04T14:49:12;3.50;99.90
59855;DHT22;45732;52.850;6.896;2023-12-04T14:51:38;3.40;99.90
59855;DHT22;45732;52.850;6.896;2023-12-04T14:54:04;3.40;99.90
59855;DHT22;45732;52.850;6.896;2023-12-04T14:56:41;3.40;99.90
59855;DHT22;45732;52.850;6.896;2023-12-04T14:59:30;3.40;99.90
59855;DHT22;45732;52.850;6.896;2023-12-04T15:02:14;3.30;99.90
59855;DHT22;45732;52.850;6.896;2023-12-04T15:04:58;3.40;99.90
59855;DHT22;45732;52.850;6.896;2023-12-04T15:07:30;3.40;99.90
59855;DHT22;45732;52.850;6.896;2023-12-04T15:10:13;3.30;99.90
59855;DHT22;45732;52.850;6.896;2023-12-04T15:13:11;3.30;99.90
59855;DHT22;45732;52.850;6.896;2023-12-04T15:15:55;3.30;99.90
59855;DHT22;45732;52.850;6.896;2023-12-04T15:18:42;3.30;99.90
59855;DHT22;45732;52.850;6.896;2023-12-04T15:21:23;3.30;99.90
59855;DHT22;45732;52.850;6.896;2023-12-04T15:23:49;3.30;99.90
59855;DHT22;45732;52.850;6.896;2023-12-04T15:26:15;3.20;99.90
59855;DHT22;45732;52.850;6.896;2023-12-04T15:28:42;3.20;99.90
59855;DHT22;45732;52.850;6.896;2023-12-04T15:31:08;3.20;99.90
59855;DHT22;45732;52.850;6.896;2023-12-04T15:33:34;3.10;99.90
59855;DHT22;45732;52.850;6.896;2023-12-04T15:36:00;3.10;99.90
59855;DHT22;45732;52.850;6.896;2023-12-04T15:38:25;3.10;99.90
59855;DHT22;45732;52.850;6.896;2023-12-04T15:40:51;3.00;99.90
59855;DHT22;45732;52.850;6.896;2023-12-04T15:43:18;3.10;99.90
59855;DHT22;45732;52.850;6.896;2023-12-04T15:45:43;3.10;99.90
59855;DHT22;45732;52.850;6.896;2023-12-04T15:48:09;3.00;99.90
59855;DHT22;45732;52.850;6.896;2023-12-04T15:50:36;3.00;99.90